sensor_id;sensor_type;location;lat;lon;timestamp;temperature;humidity
11559;DHT22;5835;42.930;25.178;2022-10-16T00:00:15;6.80;99.90
11559;DHT22;5835;42.930;25.178;2022-10-16T00:02:42;6.80;99.90
11559;DHT22;5835;42.930;25.178;2022-10-16T00:05:10;6.80;99.90
11559;DHT22;5835;42.930;25.178;2022-10-16T00:07:37;6.90;99.90
11559;DHT22;5835;42.930;25.178;2022-10-16T00:10:05;6.90;99.90
11559;DHT22;5835;42.930;25.178;2022-10-16T00:12:33;6.70;99.90
11559;DHT22;5835;42.930;25.178;2022-10-16T00:15:02;6.60;99.90
11559;DHT22;5835;42.930;25.178;2022-10-16T00:17:30;6.40;99.90
11559;DHT22;5835;42.930;25.178;2022-10-16T00:19:58;6.40;99.90
11559;DHT22;5835;42.930;25.178;2022-10-16T00:22:25;6.20;99.90
11559;DHT22;5835;42.930;25.178;2022-10-16T00:24:53;6.20;99.90
11559;DHT22;5835;42.930;25.178;2022-10-16T00:27:21;6.20;99.90
11559;DHT22;5835;42.930;25.178;2022-10-16T00:29:50;6.30;99.90
11559;DHT22;5835;42.930;25.178;2022-10-16T00:32:19;6.10;99.90
11559;DHT22;5835;42.930;25.178;2022-10-16T00:34:46;5.90;99.90
11559;DHT22;5835;42.930;25.178;2022-10-16T00:37:14;5.90;99.90
11559;DHT22;5835;42.930;25.178;2022-10-16T00:39:42;6.00;99.90
11559;DHT22;5835;42.930;25.178;2022-10-16T00:42:13;6.00;99.90
11559;DHT22;5835;42.930;25.178;2022-10-16T00:44:44;6.00;99.90
11559;DHT22;5835;42.930;25.178;2022-10-16T00:47:19;6.00;99.90
11559;DHT22;5835;42.930;25.178;2022-10-16T00:49:48;5.90;99.90
11559;DHT22;5835;42.930;25.178;2022-10-16T00:52:17;5.90;99.90
11559;DHT22;5835;42.930;25.178;2022-10-16T00:54:46;6.00;99.90
11559;DHT22;5835;42.930;25.178;2022-10-16T00:57:16;6.00;99.90
11559;DHT22;5835;42.930;25.178;2022-10-16T00:59:45;6.10;99.90
11559;DHT22;5835;42.930;25.178;2022-10-16T01:02:14;6.30;99.90
11559;DHT22;5835;42.930;25.178;2022-10-16T01:04:45;6.40;99.90
11559;DHT22;5835;42.930;25.178;2022-10-16T01:07:19;6.50;99.90
11559;DHT22;5835;42.930;25.178;2022-10-16T01:09:59;6.30;99.90
11559;DHT22;5835;42.930;25.178;2022-10-16T01:12:37;6.10;99.90
11559;DHT22;5835;42.930;25.178;2022-10-16T01:15:11;6.00;99.90
11559;DHT22;5835;42.930;25.178;2022-10-16T01:17:45;6.20;99.90
11559;DHT22;5835;42.930;25.178;2022-10-16T01:20:23;6.10;99.90
11559;DHT22;5835;42.930;25.178;2022-10-16T01:23:07;6.10;99.90
11559;DHT22;5835;42.930;25.178;2022-10-16T01:25:54;6.10;99.90
11559;DHT22;5835;42.930;25.178;2022-10-16T01:28:29;5.90;99.90
11559;DHT22;5835;42.930;25.178;2022-10-16T01:31:01;5.60;99.90
11559;DHT22;5835;42.930;25.178;2022-10-16T01:33:34;5.70;99.90
11559;DHT22;5835;42.930;25.178;2022-10-16T01:36:07;5.70;99.90
11559;DHT22;5835;42.930;25.178;2022-10-16T01:38:39;5.70;99.90
11559;DHT22;5835;42.930;25.178;2022-10-16T01:41:11;5.60;99.90
11559;DHT22;5835;42.930;25.178;2022-10-16T01:43:46;5.50;99.90
11559;DHT22;5835;42.930;25.178;2022-10-16T01:46:18;5.50;99.90
11559;DHT22;5835;42.930;25.178;2022-10-16T01:48:46;5.40;99.90
11559;DHT22;5835;42.930;25.178;2022-10-16T01:51:17;5.30;99.90
11559;DHT22;5835;42.930;25.178;2022-10-16T01:53:48;5.30;99.90
11559;DHT22;5835;42.930;25.178;2022-10-16T01:56:18;5.50;99.90
11559;DHT22;5835;42.930;25.178;2022-10-16T01:58:53;5.30;99.90
11559;DHT22;5835;42.930;25.178;2022-10-16T02:01:24;5.00;99.90
11559;DHT22;5835;42.930;25.178;2022-10-16T02:03:54;5.10;99.90
11559;DHT22;5835;42.930;25.178;2022-10-16T02:06:24;5.10;99.90
11559;DHT22;5835;42.930;25.178;2022-10-16T02:08:52;5.00;99.90
11559;DHT22;5835;42.930;25.178;2022-10-16T02:11:20;5.00;99.90
11559;DHT22;5835;42.930;25.178;2022-10-16T02:13:55;5.00;99.90
11559;DHT22;5835;42.930;25.178;2022-10-16T02:16:32;5.10;99.90
11559;DHT22;5835;42.930;25.178;2022-10-16T02:19:00;5.00;99.90
11559;DHT22;5835;42.930;25.178;2022-10-16T02:21:31;5.00;99.90
11559;DHT22;5835;42.930;25.178;2022-10-16T02:24:05;5.00;99.90
11559;DHT22;5835;42.930;25.178;2022-10-16T02:26:36;4.90;99.90
11559;DHT22;5835;42.930;25.178;2022-10-16T02:29:11;5.00;99.90
11559;DHT22;5835;42.930;25.178;2022-10-16T02:31:43;4.90;99.90
11559;DHT22;5835;42.930;25.178;2022-10-16T02:34:14;4.90;99.90
11559;DHT22;5835;42.930;25.178;2022-10-16T02:36:43;5.00;99.90
11559;DHT22;5835;42.930;25.178;2022-10-16T02:39:11;4.90;99.90
11559;DHT22;5835;42.930;25.178;2022-10-16T02:41:40;4.80;99.90
11559;DHT22;5835;42.930;25.178;2022-10-16T02:44:09;4.70;99.90
11559;DHT22;5835;42.930;25.178;2022-10-16T02:46:36;4.70;99.90
11559;DHT22;5835;42.930;25.178;2022-10-16T02:49:04;4.60;99.90
11559;DHT22;5835;42.930;25.178;2022-10-16T02:51:31;4.70;99.90
11559;DHT22;5835;42.930;25.178;2022-10-16T02:53:59;4.50;99.90
11559;DHT22;5835;42.930;25.178;2022-10-16T02:56:27;4.50;99.90
11559;DHT22;5835;42.930;25.178;2022-10-16T02:58:55;4.50;99.90
11559;DHT22;5835;42.930;25.178;2022-10-16T03:01:24;4.60;99.90
11559;DHT22;5835;42.930;25.178;2022-10-16T03:03:52;4.70;99.90
11559;DHT22;5835;42.930;25.178;2022-10-16T03:06:19;4.70;99.90
11559;DHT22;5835;42.930;25.178;2022-10-16T03:08:47;4.70;99.90
11559;DHT22;5835;42.930;25.178;2022-10-16T03:11:14;4.50;99.90
11559;DHT22;5835;42.930;25.178;2022-10-16T03:13:42;4.30;99.90
11559;DHT22;5835;42.930;25.178;2022-10-16T03:16:09;4.20;99.90
11559;DHT22;5835;42.930;25.178;2022-10-16T03:18:38;4.10;99.90
11559;DHT22;5835;42.930;25.178;2022-10-16T03:21:06;4.10;99.90
11559;DHT22;5835;42.930;25.178;2022-10-16T03:23:33;4.00;99.90
11559;DHT22;5835;42.930;25.178;2022-10-16T03:26:01;3.90;99.90
11559;DHT22;5835;42.930;25.178;2022-10-16T03:28:28;4.00;99.90
11559;DHT22;5835;42.930;25.178;2022-10-16T03:30:56;4.10;99.90
11559;DHT22;5835;42.930;25.178;2022-10-16T03:33:23;4.10;99.90
11559;DHT22;5835;42.930;25.178;2022-10-16T03:35:53;4.00;99.90
11559;DHT22;5835;42.930;25.178;2022-10-16T03:38:21;4.00;99.90
11559;DHT22;5835;42.930;25.178;2022-10-16T03:40:49;4.00;99.90
11559;DHT22;5835;42.930;25.178;2022-10-16T03:43:17;4.20;99.90
11559;DHT22;5835;42.930;25.178;2022-10-16T03:45:44;4.40;99.90
11559;DHT22;5835;42.930;25.178;2022-10-16T03:48:12;4.50;99.90
11559;DHT22;5835;42.930;25.178;2022-10-16T03:50:39;4.50;99.90
11559;DHT22;5835;42.930;25.178;2022-10-16T03:53:08;4.60;99.90
11559;DHT22;5835;42.930;25.178;2022-10-16T03:55:36;4.30;99.90
11559;DHT22;5835;42.930;25.178;2022-10-16T03:58:03;4.30;99.90
11559;DHT22;5835;42.930;25.178;2022-10-16T04:00:30;4.30;99.90
11559;DHT22;5835;42.930;25.178;2022-10-16T04:02:58;4.30;99.90
11559;DHT22;5835;42.930;25.178;2022-10-16T04:05:25;4.20;99.90
11559;DHT22;5835;42.930;25.178;2022-10-16T04:07:53;4.30;99.90
11559;DHT22;5835;42.930;25.178;2022-10-16T04:10:22;4.00;99.90
11559;DHT22;5835;42.930;25.178;2022-10-16T04:12:50;4.20;99.90
11559;DHT22;5835;42.930;25.178;2022-10-16T04:15:17;4.40;99.90
11559;DHT22;5835;42.930;25.178;2022-10-16T04:17:44;4.50;99.90
11559;DHT22;5835;42.930;25.178;2022-10-16T04:20:12;4.60;99.90
11559;DHT22;5835;42.930;25.178;2022-10-16T04:22:40;4.30;99.90
11559;DHT22;5835;42.930;25.178;2022-10-16T04:25:08;4.10;99.90
11559;DHT22;5835;42.930;25.178;2022-10-16T04:27:37;4.10;99.90
11559;DHT22;5835;42.930;25.178;2022-10-16T04:30:05;4.10;99.90
11559;DHT22;5835;42.930;25.178;2022-10-16T04:32:33;3.80;99.90
11559;DHT22;5835;42.930;25.178;2022-10-16T04:35:00;3.70;99.90
11559;DHT22;5835;42.930;25.178;2022-10-16T04:37:28;3.70;99.90
11559;DHT22;5835;42.930;25.178;2022-10-16T04:39:56;3.60;99.90
11559;DHT22;5835;42.930;25.178;2022-10-16T04:42:24;3.80;99.90
11559;DHT22;5835;42.930;25.178;2022-10-16T04:44:53;3.80;99.90
11559;DHT22;5835;42.930;25.178;2022-10-16T04:47:20;3.90;99.90
11559;DHT22;5835;42.930;25.178;2022-10-16T04:49:48;3.90;99.90
11559;DHT22;5835;42.930;25.178;2022-10-16T04:52:15;4.00;99.90
11559;DHT22;5835;42.930;25.178;2022-10-16T04:54:44;4.00;99.90
11559;DHT22;5835;42.930;25.178;2022-10-16T04:57:12;4.10;99.90
11559;DHT22;5835;42.930;25.178;2022-10-16T04:59:39;4.30;99.90
11559;DHT22;5835;42.930;25.178;2022-10-16T05:02:09;4.30;99.90
11559;DHT22;5835;42.930;25.178;2022-10-16T05:04:36;4.20;99.90
11559;DHT22;5835;42.930;25.178;2022-10-16T05:07:04;4.30;99.90
11559;DHT22;5835;42.930;25.178;2022-10-16T05:09:32;4.20;99.90
11559;DHT22;5835;42.930;25.178;2022-10-16T05:12:00;4.20;99.90
11559;DHT22;5835;42.930;25.178;2022-10-16T05:14:29;4.30;99.90
11559;DHT22;5835;42.930;25.178;2022-10-16T05:16:56;4.30;99.90
11559;DHT22;5835;42.930;25.178;2022-10-16T05:19:25;4.30;99.90
11559;DHT22;5835;42.930;25.178;2022-10-16T05:21:53;4.30;99.90
11559;DHT22;5835;42.930;25.178;2022-10-16T05:24:21;4.30;99.90
11559;DHT22;5835;42.930;25.178;2022-10-16T05:26:49;4.40;99.90
11559;DHT22;5835;42.930;25.178;2022-10-16T05:29:16;4.40;99.90
11559;DHT22;5835;42.930;25.178;2022-10-16T05:31:44;4.40;99.90
11559;DHT22;5835;42.930;25.178;2022-10-16T05:34:11;4.50;99.90
11559;DHT22;5835;42.930;25.178;2022-10-16T05:36:40;4.50;99.90
11559;DHT22;5835;42.930;25.178;2022-10-16T05:39:08;4.40;99.90
11559;DHT22;5835;42.930;25.178;2022-10-16T05:41:36;4.40;99.90
11559;DHT22;5835;42.930;25.178;2022-10-16T05:44:04;4.40;99.90
11559;DHT22;5835;42.930;25.178;2022-10-16T05:46:32;4.50;99.90
11559;DHT22;5835;42.930;25.178;2022-10-16T05:49:00;4.50;99.90
11559;DHT22;5835;42.930;25.178;2022-10-16T05:51:27;4.50;99.90
11559;DHT22;5835;42.930;25.178;2022-10-16T05:53:57;4.60;99.90
11559;DHT22;5835;42.930;25.178;2022-10-16T05:56:24;4.60;99.90
11559;DHT22;5835;42.930;25.178;2022-10-16T05:58:52;4.70;99.90
11559;DHT22;5835;42.930;25.178;2022-10-16T06:01:19;4.80;99.90
11559;DHT22;5835;42.930;25.178;2022-10-16T06:03:50;4.80;99.90
11559;DHT22;5835;42.930;25.178;2022-10-16T06:06:18;5.00;99.90
11559;DHT22;5835;42.930;25.178;2022-10-16T06:08:47;5.20;99.90
11559;DHT22;5835;42.930;25.178;2022-10-16T06:11:19;5.30;99.90
11559;DHT22;5835;42.930;25.178;2022-10-16T06:13:49;5.30;99.90
11559;DHT22;5835;42.930;25.178;2022-10-16T06:16:17;5.30;99.90
11559;DHT22;5835;42.930;25.178;2022-10-16T06:18:45;5.50;99.90
11559;DHT22;5835;42.930;25.178;2022-10-16T06:21:15;5.50;99.90
11559;DHT22;5835;42.930;25.178;2022-10-16T06:23:43;5.50;99.90
11559;DHT22;5835;42.930;25.178;2022-10-16T06:26:14;5.50;99.90
11559;DHT22;5835;42.930;25.178;2022-10-16T06:28:43;5.50;99.90
11559;DHT22;5835;42.930;25.178;2022-10-16T06:31:12;5.60;99.90
11559;DHT22;5835;42.930;25.178;2022-10-16T06:33:40;5.60;99.90
11559;DHT22;5835;42.930;25.178;2022-10-16T06:36:14;5.60;99.90
11559;DHT22;5835;42.930;25.178;2022-10-16T06:38:42;5.60;99.90
11559;DHT22;5835;42.930;25.178;2022-10-16T06:41:12;5.60;99.90
11559;DHT22;5835;42.930;25.178;2022-10-16T06:43:40;5.70;99.90
11559;DHT22;5835;42.930;25.178;2022-10-16T06:46:11;5.80;99.90
11559;DHT22;5835;42.930;25.178;2022-10-16T06:48:38;5.80;99.90
11559;DHT22;5835;42.930;25.178;2022-10-16T06:51:08;5.90;99.90
11559;DHT22;5835;42.930;25.178;2022-10-16T06:53:37;6.00;99.90
11559;DHT22;5835;42.930;25.178;2022-10-16T06:56:09;6.20;99.90
11559;DHT22;5835;42.930;25.178;2022-10-16T06:58:37;6.30;99.90
11559;DHT22;5835;42.930;25.178;2022-10-16T07:01:05;6.40;99.90
11559;DHT22;5835;42.930;25.178;2022-10-16T07:03:36;6.60;99.90
11559;DHT22;5835;42.930;25.178;2022-10-16T07:06:05;6.70;99.90
11559;DHT22;5835;42.930;25.178;2022-10-16T07:08:33;6.70;99.90
11559;DHT22;5835;42.930;25.178;2022-10-16T07:11:02;6.80;99.90
11559;DHT22;5835;42.930;25.178;2022-10-16T07:13:32;7.00;99.90
11559;DHT22;5835;42.930;25.178;2022-10-16T07:16:04;7.00;99.90
11559;DHT22;5835;42.930;25.178;2022-10-16T07:18:34;7.10;99.90
11559;DHT22;5835;42.930;25.178;2022-10-16T07:21:05;7.20;99.90
11559;DHT22;5835;42.930;25.178;2022-10-16T07:23:33;7.20;99.90
11559;DHT22;5835;42.930;25.178;2022-10-16T07:26:01;7.30;99.90
11559;DHT22;5835;42.930;25.178;2022-10-16T07:28:29;7.40;99.90
11559;DHT22;5835;42.930;25.178;2022-10-16T07:31:01;7.70;99.90
11559;DHT22;5835;42.930;25.178;2022-10-16T07:33:29;7.90;99.90
11559;DHT22;5835;42.930;25.178;2022-10-16T07:35:58;8.10;99.90
11559;DHT22;5835;42.930;25.178;2022-10-16T07:38:25;8.20;99.90
11559;DHT22;5835;42.930;25.178;2022-10-16T07:40:57;8.20;99.90
11559;DHT22;5835;42.930;25.178;2022-10-16T07:43:25;8.30;99.90
11559;DHT22;5835;42.930;25.178;2022-10-16T07:45:53;8.40;99.90
11559;DHT22;5835;42.930;25.178;2022-10-16T07:48:22;8.60;99.90
11559;DHT22;5835;42.930;25.178;2022-10-16T07:50:50;8.70;99.90
11559;DHT22;5835;42.930;25.178;2022-10-16T07:53:19;8.80;99.90
11559;DHT22;5835;42.930;25.178;2022-10-16T07:55:46;9.00;99.90
11559;DHT22;5835;42.930;25.178;2022-10-16T07:58:13;9.10;99.90
11559;DHT22;5835;42.930;25.178;2022-10-16T08:00:41;9.20;99.90
11559;DHT22;5835;42.930;25.178;2022-10-16T08:03:09;9.40;99.90
11559;DHT22;5835;42.930;25.178;2022-10-16T08:05:36;9.60;99.90
11559;DHT22;5835;42.930;25.178;2022-10-16T08:08:03;9.70;99.90
11559;DHT22;5835;42.930;25.178;2022-10-16T08:10:33;9.90;99.90
11559;DHT22;5835;42.930;25.178;2022-10-16T08:13:01;9.90;99.90
11559;DHT22;5835;42.930;25.178;2022-10-16T08:15:28;10.10;99.90
11559;DHT22;5835;42.930;25.178;2022-10-16T08:17:57;10.20;99.90
11559;DHT22;5835;42.930;25.178;2022-10-16T08:20:25;10.30;99.90
11559;DHT22;5835;42.930;25.178;2022-10-16T08:22:53;10.40;99.90
11559;DHT22;5835;42.930;25.178;2022-10-16T08:25:21;10.70;99.90
11559;DHT22;5835;42.930;25.178;2022-10-16T08:27:51;10.80;99.90
11559;DHT22;5835;42.930;25.178;2022-10-16T08:30:20;10.90;99.90
11559;DHT22;5835;42.930;25.178;2022-10-16T08:32:48;11.20;99.90
11559;DHT22;5835;42.930;25.178;2022-10-16T08:35:16;11.30;99.90
11559;DHT22;5835;42.930;25.178;2022-10-16T08:37:43;11.40;99.90
11559;DHT22;5835;42.930;25.178;2022-10-16T08:40:26;11.50;99.90
11559;DHT22;5835;42.930;25.178;2022-10-16T08:43:11;11.60;99.90
11559;DHT22;5835;42.930;25.178;2022-10-16T08:46:01;11.80;99.90
11559;DHT22;5835;42.930;25.178;2022-10-16T08:48:39;11.90;99.90
11559;DHT22;5835;42.930;25.178;2022-10-16T08:51:08;12.10;99.90
11559;DHT22;5835;42.930;25.178;2022-10-16T08:53:41;12.20;99.90
11559;DHT22;5835;42.930;25.178;2022-10-16T08:56:10;12.40;99.90
11559;DHT22;5835;42.930;25.178;2022-10-16T08:58:39;12.70;99.90
11559;DHT22;5835;42.930;25.178;2022-10-16T09:01:12;12.60;99.90
11559;DHT22;5835;42.930;25.178;2022-10-16T09:03:53;12.50;99.90
11559;DHT22;5835;42.930;25.178;2022-10-16T09:06:37;12.70;99.90
11559;DHT22;5835;42.930;25.178;2022-10-16T09:09:24;13.00;99.90
11559;DHT22;5835;42.930;25.178;2022-10-16T09:12:01;13.10;99.90
11559;DHT22;5835;42.930;25.178;2022-10-16T09:14:50;13.40;99.90
11559;DHT22;5835;42.930;25.178;2022-10-16T09:17:34;13.40;99.90
11559;DHT22;5835;42.930;25.178;2022-10-16T09:20:18;13.50;99.90
11559;DHT22;5835;42.930;25.178;2022-10-16T09:22:46;13.50;99.90
11559;DHT22;5835;42.930;25.178;2022-10-16T09:25:15;13.80;99.90
11559;DHT22;5835;42.930;25.178;2022-10-16T09:27:45;13.90;99.90
11559;DHT22;5835;42.930;25.178;2022-10-16T09:30:17;14.00;99.90
11559;DHT22;5835;42.930;25.178;2022-10-16T09:32:47;14.20;99.90
11559;DHT22;5835;42.930;25.178;2022-10-16T09:35:17;14.20;74.50
11559;DHT22;5835;42.930;25.178;2022-10-16T09:37:49;14.50;37.50
11559;DHT22;5835;42.930;25.178;2022-10-16T09:40:26;14.40;16.10
11559;DHT22;5835;42.930;25.178;2022-10-16T09:43:05;14.60;18.00
11559;DHT22;5835;42.930;25.178;2022-10-16T09:45:37;14.90;53.30
11559;DHT22;5835;42.930;25.178;2022-10-16T09:48:11;15.30;1.00
11559;DHT22;5835;42.930;25.178;2022-10-16T09:50:39;14.90;1.00
11559;DHT22;5835;42.930;25.178;2022-10-16T09:53:12;15.00;1.00
11559;DHT22;5835;42.930;25.178;2022-10-16T09:55:48;15.20;1.00
11559;DHT22;5835;42.930;25.178;2022-10-16T09:58:17;15.30;1.00
11559;DHT22;5835;42.930;25.178;2022-10-16T10:00:53;15.40;1.00
11559;DHT22;5835;42.930;25.178;2022-10-16T10:03:35;15.20;1.00
11559;DHT22;5835;42.930;25.178;2022-10-16T10:06:14;15.40;1.00
11559;DHT22;5835;42.930;25.178;2022-10-16T10:08:54;15.20;1.00
11559;DHT22;5835;42.930;25.178;2022-10-16T10:11:40;15.50;1.00
11559;DHT22;5835;42.930;25.178;2022-10-16T10:14:19;15.70;1.00
11559;DHT22;5835;42.930;25.178;2022-10-16T10:16:49;15.90;1.00
11559;DHT22;5835;42.930;25.178;2022-10-16T10:19:18;16.10;1.00
11559;DHT22;5835;42.930;25.178;2022-10-16T10:21:47;16.40;1.00
11559;DHT22;5835;42.930;25.178;2022-10-16T10:24:16;16.60;1.00
11559;DHT22;5835;42.930;25.178;2022-10-16T10:26:52;16.50;1.00
11559;DHT22;5835;42.930;25.178;2022-10-16T10:29:34;16.70;1.00
11559;DHT22;5835;42.930;25.178;2022-10-16T10:32:17;16.90;1.00
11559;DHT22;5835;42.930;25.178;2022-10-16T10:35:05;16.80;1.00
11559;DHT22;5835;42.930;25.178;2022-10-16T10:37:55;16.70;1.00
11559;DHT22;5835;42.930;25.178;2022-10-16T10:40:33;16.60;1.00
11559;DHT22;5835;42.930;25.178;2022-10-16T10:43:09;16.80;1.00
11559;DHT22;5835;42.930;25.178;2022-10-16T10:45:43;16.90;1.00
11559;DHT22;5835;42.930;25.178;2022-10-16T10:48:25;16.60;1.00
11559;DHT22;5835;42.930;25.178;2022-10-16T10:50:59;16.60;1.00
11559;DHT22;5835;42.930;25.178;2022-10-16T10:53:36;16.60;1.00
11559;DHT22;5835;42.930;25.178;2022-10-16T10:56:16;16.60;1.00
11559;DHT22;5835;42.930;25.178;2022-10-16T10:59:02;16.90;1.00
11559;DHT22;5835;42.930;25.178;2022-10-16T11:01:39;17.10;1.00
11559;DHT22;5835;42.930;25.178;2022-10-16T11:04:37;16.80;1.00
11559;DHT22;5835;42.930;25.178;2022-10-16T11:07:15;16.90;1.00
11559;DHT22;5835;42.930;25.178;2022-10-16T11:09:47;16.80;1.00
11559;DHT22;5835;42.930;25.178;2022-10-16T11:12:18;16.50;1.00
11559;DHT22;5835;42.930;25.178;2022-10-16T11:14:49;17.00;1.00
11559;DHT22;5835;42.930;25.178;2022-10-16T11:17:23;17.20;1.00
11559;DHT22;5835;42.930;25.178;2022-10-16T11:19:57;17.40;1.00
11559;DHT22;5835;42.930;25.178;2022-10-16T11:22:29;17.50;1.00
11559;DHT22;5835;42.930;25.178;2022-10-16T11:25:02;18.00;1.00
11559;DHT22;5835;42.930;25.178;2022-10-16T11:27:36;18.20;1.00
11559;DHT22;5835;42.930;25.178;2022-10-16T11:30:12;18.20;1.00
11559;DHT22;5835;42.930;25.178;2022-10-16T11:32:58;17.80;1.00
11559;DHT22;5835;42.930;25.178;2022-10-16T11:35:37;17.50;1.00
11559;DHT22;5835;42.930;25.178;2022-10-16T11:38:12;17.70;1.00
11559;DHT22;5835;42.930;25.178;2022-10-16T11:40:43;17.90;1.00
11559;DHT22;5835;42.930;25.178;2022-10-16T11:43:17;17.90;1.00
11559;DHT22;5835;42.930;25.178;2022-10-16T11:45:50;17.90;1.00
11559;DHT22;5835;42.930;25.178;2022-10-16T11:48:25;17.60;1.00
11559;DHT22;5835;42.930;25.178;2022-10-16T11:50:58;17.80;1.00
11559;DHT22;5835;42.930;25.178;2022-10-16T11:53:39;17.70;1.00
11559;DHT22;5835;42.930;25.178;2022-10-16T11:56:13;17.70;1.00
11559;DHT22;5835;42.930;25.178;2022-10-16T11:58:52;17.70;1.00
11559;DHT22;5835;42.930;25.178;2022-10-16T12:01:28;17.70;1.00
11559;DHT22;5835;42.930;25.178;2022-10-16T12:04:05;17.50;1.00
11559;DHT22;5835;42.930;25.178;2022-10-16T12:06:39;17.50;1.00
11559;DHT22;5835;42.930;25.178;2022-10-16T12:09:15;17.40;1.00
11559;DHT22;5835;42.930;25.178;2022-10-16T12:11:43;17.30;1.00
11559;DHT22;5835;42.930;25.178;2022-10-16T12:14:33;17.40;1.00
11559;DHT22;5835;42.930;25.178;2022-10-16T12:17:03;17.50;1.00
11559;DHT22;5835;42.930;25.178;2022-10-16T12:19:32;17.50;1.00
11559;DHT22;5835;42.930;25.178;2022-10-16T12:22:02;17.50;1.00
11559;DHT22;5835;42.930;25.178;2022-10-16T12:24:34;17.30;1.00
11559;DHT22;5835;42.930;25.178;2022-10-16T12:27:03;17.70;1.00
11559;DHT22;5835;42.930;25.178;2022-10-16T12:29:36;17.70;1.00
11559;DHT22;5835;42.930;25.178;2022-10-16T12:32:06;17.70;1.00
11559;DHT22;5835;42.930;25.178;2022-10-16T12:34:47;17.70;1.00
11559;DHT22;5835;42.930;25.178;2022-10-16T12:37:25;17.80;1.00
11559;DHT22;5835;42.930;25.178;2022-10-16T12:39:54;17.70;1.00
11559;DHT22;5835;42.930;25.178;2022-10-16T12:42:32;17.80;1.00
11559;DHT22;5835;42.930;25.178;2022-10-16T12:45:12;17.60;1.00
11559;DHT22;5835;42.930;25.178;2022-10-16T12:47:49;17.70;1.00
11559;DHT22;5835;42.930;25.178;2022-10-16T12:50:32;17.60;1.00
11559;DHT22;5835;42.930;25.178;2022-10-16T12:53:04;17.50;1.00
11559;DHT22;5835;42.930;25.178;2022-10-16T12:55:52;17.50;1.00
11559;DHT22;5835;42.930;25.178;2022-10-16T12:58:43;17.50;1.00
11559;DHT22;5835;42.930;25.178;2022-10-16T13:01:25;17.60;1.00
11559;DHT22;5835;42.930;25.178;2022-10-16T13:04:22;17.70;1.00
11559;DHT22;5835;42.930;25.178;2022-10-16T13:06:56;17.70;1.00
11559;DHT22;5835;42.930;25.178;2022-10-16T13:09:44;17.80;1.00
11559;DHT22;5835;42.930;25.178;2022-10-16T13:12:25;17.80;1.00
11559;DHT22;5835;42.930;25.178;2022-10-16T13:15:16;17.60;1.00
11559;DHT22;5835;42.930;25.178;2022-10-16T13:17:53;17.70;1.00
11559;DHT22;5835;42.930;25.178;2022-10-16T13:20:30;17.80;1.00
11559;DHT22;5835;42.930;25.178;2022-10-16T13:23:06;17.90;1.00
11559;DHT22;5835;42.930;25.178;2022-10-16T13:25:48;18.10;1.00
11559;DHT22;5835;42.930;25.178;2022-10-16T13:28:22;18.20;1.00
11559;DHT22;5835;42.930;25.178;2022-10-16T13:30:54;18.20;1.00
11559;DHT22;5835;42.930;25.178;2022-10-16T13:33:30;18.20;1.00
11559;DHT22;5835;42.930;25.178;2022-10-16T13:35:59;18.10;1.00
11559;DHT22;5835;42.930;25.178;2022-10-16T13:38:27;18.00;1.00
11559;DHT22;5835;42.930;25.178;2022-10-16T13:40:59;18.10;1.00
11559;DHT22;5835;42.930;25.178;2022-10-16T13:43:31;18.10;1.00
11559;DHT22;5835;42.930;25.178;2022-10-16T13:46:01;18.10;1.00
11559;DHT22;5835;42.930;25.178;2022-10-16T13:48:29;18.00;1.00
11559;DHT22;5835;42.930;25.178;2022-10-16T13:51:05;17.90;1.00
11559;DHT22;5835;42.930;25.178;2022-10-16T13:53:34;17.90;1.00
11559;DHT22;5835;42.930;25.178;2022-10-16T13:56:06;17.70;1.00
11559;DHT22;5835;42.930;25.178;2022-10-16T13:58:34;17.60;1.00
11559;DHT22;5835;42.930;25.178;2022-10-16T14:01:03;17.70;1.00
11559;DHT22;5835;42.930;25.178;2022-10-16T14:03:31;17.80;1.00
11559;DHT22;5835;42.930;25.178;2022-10-16T14:06:02;17.70;1.00
11559;DHT22;5835;42.930;25.178;2022-10-16T14:08:31;17.80;1.00
11559;DHT22;5835;42.930;25.178;2022-10-16T14:10:59;17.70;1.00
11559;DHT22;5835;42.930;25.178;2022-10-16T14:13:36;17.80;1.00
11559;DHT22;5835;42.930;25.178;2022-10-16T14:16:07;17.70;1.00
11559;DHT22;5835;42.930;25.178;2022-10-16T14:18:38;17.50;1.00
11559;DHT22;5835;42.930;25.178;2022-10-16T14:21:11;17.70;1.00
11559;DHT22;5835;42.930;25.178;2022-10-16T14:23:40;17.50;1.00
11559;DHT22;5835;42.930;25.178;2022-10-16T14:26:17;17.70;1.00
11559;DHT22;5835;42.930;25.178;2022-10-16T14:28:47;17.90;1.00
11559;DHT22;5835;42.930;25.178;2022-10-16T14:31:28;17.80;1.00
11559;DHT22;5835;42.930;25.178;2022-10-16T14:33:56;17.70;1.00
11559;DHT22;5835;42.930;25.178;2022-10-16T14:36:25;17.80;1.00
11559;DHT22;5835;42.930;25.178;2022-10-16T14:39:01;17.80;1.00
11559;DHT22;5835;42.930;25.178;2022-10-16T14:41:30;17.80;1.00
11559;DHT22;5835;42.930;25.178;2022-10-16T14:44:02;17.70;1.00
11559;DHT22;5835;42.930;25.178;2022-10-16T14:46:33;17.60;1.00
11559;DHT22;5835;42.930;25.178;2022-10-16T14:49:11;17.80;1.00
11559;DHT22;5835;42.930;25.178;2022-10-16T14:51:41;18.20;1.00
11559;DHT22;5835;42.930;25.178;2022-10-16T14:54:11;18.50;1.00
11559;DHT22;5835;42.930;25.178;2022-10-16T14:56:45;18.60;1.00
11559;DHT22;5835;42.930;25.178;2022-10-16T14:59:18;18.10;1.00
11559;DHT22;5835;42.930;25.178;2022-10-16T15:01:46;18.10;1.00
11559;DHT22;5835;42.930;25.178;2022-10-16T15:04:14;18.10;1.00
11559;DHT22;5835;42.930;25.178;2022-10-16T15:06:42;18.10;1.00
11559;DHT22;5835;42.930;25.178;2022-10-16T15:09:10;17.90;1.00
11559;DHT22;5835;42.930;25.178;2022-10-16T15:11:37;17.90;1.00
11559;DHT22;5835;42.930;25.178;2022-10-16T15:14:05;17.70;1.00
11559;DHT22;5835;42.930;25.178;2022-10-16T15:16:34;17.60;1.00
11559;DHT22;5835;42.930;25.178;2022-10-16T15:19:02;17.40;1.00
11559;DHT22;5835;42.930;25.178;2022-10-16T15:21:31;17.40;1.00
11559;DHT22;5835;42.930;25.178;2022-10-16T15:24:00;17.10;1.00
11559;DHT22;5835;42.930;25.178;2022-10-16T15:26:28;16.90;1.00
11559;DHT22;5835;42.930;25.178;2022-10-16T15:28:57;16.70;1.00
11559;DHT22;5835;42.930;25.178;2022-10-16T15:31:24;16.40;1.00
11559;DHT22;5835;42.930;25.178;2022-10-16T15:33:54;16.30;1.00
11559;DHT22;5835;42.930;25.178;2022-10-16T15:36:28;16.00;1.00
11559;DHT22;5835;42.930;25.178;2022-10-16T15:38:56;15.70;1.00
11559;DHT22;5835;42.930;25.178;2022-10-16T15:41:23;15.70;1.00
11559;DHT22;5835;42.930;25.178;2022-10-16T15:43:51;15.40;1.00
11559;DHT22;5835;42.930;25.178;2022-10-16T15:46:20;15.10;1.00
11559;DHT22;5835;42.930;25.178;2022-10-16T15:48:49;14.90;1.00
11559;DHT22;5835;42.930;25.178;2022-10-16T15:51:18;14.70;1.00
11559;DHT22;5835;42.930;25.178;2022-10-16T15:53:46;14.70;1.00
11559;DHT22;5835;42.930;25.178;2022-10-16T15:56:14;14.60;1.00
11559;DHT22;5835;42.930;25.178;2022-10-16T15:58:41;14.20;1.00
11559;DHT22;5835;42.930;25.178;2022-10-16T16:01:09;14.20;1.00
11559;DHT22;5835;42.930;25.178;2022-10-16T16:03:37;14.20;1.00
11559;DHT22;5835;42.930;25.178;2022-10-16T16:06:07;14.00;1.00
11559;DHT22;5835;42.930;25.178;2022-10-16T16:08:37;14.10;1.00
11559;DHT22;5835;42.930;25.178;2022-10-16T16:11:06;13.80;1.00